createdAt,value
2022-10-11T00:01:35.099Z,40.06
2022-10-11T00:03:41.850Z,40.24
2022-10-11T00:05:48.291Z,40.40
2022-10-11T00:07:54.690Z,40.48
2022-10-11T00:10:01.117Z,40.49
2022-10-11T00:12:08.280Z,40.86
2022-10-11T00:14:14.313Z,40.96
2022-10-11T00:16:20.778Z,41.25
2022-10-11T00:18:27.456Z,41.25
2022-10-11T00:20:33.863Z,41.26
2022-10-11T00:22:40.154Z,41.36
2022-10-11T00:24:46.488Z,41.66
2022-10-11T00:26:53.020Z,41.52
2022-10-11T00:28:59.300Z,41.93
2022-10-11T00:31:12.927Z,41.73
2022-10-11T00:33:19.705Z,41.87
2022-10-11T00:35:26.810Z,41.95
2022-10-11T00:37:38.139Z,42.04
2022-10-11T00:39:44.499Z,42.19
2022-10-11T00:41:51.365Z,42.43
2022-10-11T00:44:11.447Z,42.77
2022-10-11T00:46:20.856Z,42.86
2022-10-11T00:48:52.293Z,43.02
2022-10-11T00:51:01.696Z,43.14
2022-10-11T00:53:12.803Z,43.35
2022-10-11T00:55:21.956Z,43.27
2022-10-11T00:57:33.617Z,43.50
2022-10-11T00:59:43.214Z,43.65
2022-10-11T01:01:49.941Z,43.80
2022-10-11T01:03:58.231Z,43.84
2022-10-11T01:06:05.049Z,43.91
2022-10-11T01:08:12.033Z,44.16
2022-10-11T01:10:20.600Z,44.32
2022-10-11T01:12:30.732Z,44.52
2022-10-11T01:14:40.240Z,44.62
2022-10-11T01:16:48.911Z,44.67
2022-10-11T01:19:37.567Z,44.86
2022-10-11T01:22:15.893Z,44.75
2022-10-11T01:24:45.352Z,44.83
2022-10-11T01:26:54.224Z,44.99
2022-10-11T01:29:41.655Z,44.94
2022-10-11T01:32:00.392Z,45.15
2022-10-11T01:34:17.287Z,45.24
2022-10-11T01:36:35.306Z,45.36
2022-10-11T01:39:13.435Z,45.43
2022-10-11T01:41:25.666Z,45.60
2022-10-11T01:43:32.858Z,45.75
2022-10-11T01:45:42.612Z,45.83
2022-10-11T01:47:49.777Z,46.00
2022-10-11T01:50:02.179Z,46.00
2022-10-11T01:52:09.265Z,46.08
2022-10-11T01:54:15.243Z,46.13
2022-10-11T01:56:54.022Z,46.23
2022-10-11T01:59:18.468Z,46.36
2022-10-11T02:01:32.590Z,46.39
2022-10-11T02:03:47.190Z,46.59
2022-10-11T02:06:13.910Z,46.57
2022-10-11T02:08:49.457Z,46.80
2022-10-11T02:11:17.293Z,46.81
2022-10-11T02:13:39.616Z,46.80
2022-10-11T02:15:48.912Z,47.04
2022-10-11T02:18:00.400Z,47.15
2022-10-11T02:20:12.675Z,47.22
2022-10-11T02:22:29.826Z,47.26
2022-10-11T02:24:41.227Z,47.33
2022-10-11T02:26:56.042Z,47.45
2022-10-11T02:29:06.209Z,47.55
2022-10-11T02:31:14.132Z,47.76
2022-10-11T02:33:26.163Z,47.82
2022-10-11T02:35:41.840Z,47.77
2022-10-11T02:37:52.325Z,47.93
2022-10-11T02:40:07.991Z,47.92
2022-10-11T02:42:41.618Z,48.06
2022-10-11T02:45:05.787Z,48.28
2022-10-11T02:47:13.212Z,48.39
2022-10-11T02:49:20.876Z,48.41
2022-10-11T02:51:28.575Z,48.59
2022-10-11T02:53:34.846Z,48.72
2022-10-11T02:55:41.228Z,48.79
2022-10-11T02:57:47.630Z,48.81
2022-10-11T02:59:53.832Z,48.94
2022-10-11T03:02:00.457Z,49.13
2022-10-11T03:04:06.903Z,49.07
2022-10-11T03:06:14.005Z,49.22
2022-10-11T03:08:20.202Z,49.45
2022-10-11T03:10:26.476Z,49.63
2022-10-11T03:12:32.475Z,49.57
2022-10-11T03:14:39.353Z,49.82
2022-10-11T03:16:45.582Z,49.85
2022-10-11T03:18:52.001Z,50.08
2022-10-11T03:20:58.475Z,50.11
2022-10-11T03:23:05.186Z,50.20
2022-10-11T03:25:11.874Z,50.32
2022-10-11T03:27:18.292Z,50.49
2022-10-11T03:29:24.829Z,50.69
2022-10-11T03:31:31.114Z,50.75
2022-10-11T03:33:38.033Z,50.79
2022-10-11T03:35:49.858Z,50.99
2022-10-11T03:37:56.408Z,51.11
2022-10-11T03:40:04.336Z,51.18
2022-10-11T03:42:10.815Z,51.46
2022-10-11T03:44:17.294Z,51.46
2022-10-11T03:46:23.657Z,51.71
2022-10-11T03:48:29.957Z,51.74
2022-10-11T03:50:37.379Z,51.96
2022-10-11T03:52:43.701Z,52.01
2022-10-11T03:54:49.833Z,52.30
2022-10-11T03:56:56.358Z,52.23
2022-10-11T03:59:03.277Z,52.51
2022-10-11T04:01:09.753Z,52.56
2022-10-11T04:03:16.108Z,52.66
2022-10-11T04:05:22.632Z,52.73
2022-10-11T04:07:28.957Z,52.82
2022-10-11T04:09:35.493Z,52.91
2022-10-11T04:11:41.564Z,53.04
2022-10-11T04:13:47.742Z,53.22
2022-10-11T04:15:54.280Z,53.31
2022-10-11T04:18:00.410Z,53.43
2022-10-11T04:20:07.229Z,53.48
2022-10-11T04:22:13.849Z,53.69
2022-10-11T04:24:20.333Z,53.58
2022-10-11T04:26:26.432Z,53.60
2022-10-11T04:28:32.748Z,53.82
2022-10-11T04:30:39.009Z,53.90
2022-10-11T04:32:46.282Z,54.04
2022-10-11T04:34:52.636Z,53.99
2022-10-11T04:36:59.298Z,54.06
2022-10-11T04:39:06.738Z,54.06
2022-10-11T04:41:15.118Z,54.07
2022-10-11T04:43:21.453Z,54.22
2022-10-11T04:45:28.073Z,54.25
2022-10-11T04:47:34.728Z,54.32
2022-10-11T04:49:41.182Z,54.48
2022-10-11T04:51:47.293Z,54.58
2022-10-11T04:53:54.447Z,54.65
2022-10-11T04:56:04.075Z,54.82
2022-10-11T04:58:10.721Z,55.00
2022-10-11T05:00:17.439Z,55.06
2022-10-11T05:02:23.829Z,55.24
2022-10-11T05:04:30.223Z,55.43
2022-10-11T05:06:36.313Z,55.63
2022-10-11T05:08:42.531Z,55.78
2022-10-11T05:10:58.953Z,55.94
2022-10-11T05:13:05.311Z,56.13
2022-10-11T05:15:12.412Z,56.29
2022-10-11T05:17:18.563Z,56.43
2022-10-11T05:19:25.095Z,56.59
2022-10-11T05:21:32.052Z,56.62
2022-10-11T05:23:38.650Z,56.65
2022-10-11T05:25:45.499Z,56.70
2022-10-11T05:27:51.977Z,56.79
2022-10-11T05:29:58.476Z,56.88
2022-10-11T05:32:04.702Z,56.90
2022-10-11T05:34:11.157Z,56.95
2022-10-11T05:36:17.659Z,56.98
2022-10-11T05:38:25.009Z,57.08
2022-10-11T05:40:31.585Z,57.10
2022-10-11T05:42:38.196Z,57.15
2022-10-11T05:44:44.367Z,57.19
2022-10-11T05:46:50.728Z,57.20
2022-10-11T05:48:57.048Z,57.24
2022-10-11T05:51:06.233Z,57.30
2022-10-11T05:53:12.854Z,57.33
2022-10-11T05:55:19.216Z,57.31
2022-10-11T05:57:25.893Z,57.36
2022-10-11T05:59:32.649Z,57.41
2022-10-11T06:01:39.011Z,57.49
2022-10-11T06:03:45.369Z,57.64
2022-10-11T06:05:55.791Z,57.70
2022-10-11T06:08:04.153Z,57.73
2022-10-11T06:10:11.450Z,57.83
2022-10-11T06:12:18.586Z,58.00
2022-10-11T06:14:25.162Z,58.18
2022-10-11T06:16:31.751Z,58.12
2022-10-11T06:18:38.276Z,58.09
2022-10-11T06:20:44.339Z,58.22
2022-10-11T06:22:50.725Z,58.26
2022-10-11T06:24:57.096Z,58.42
2022-10-11T06:27:04.097Z,58.43
2022-10-11T06:29:11.095Z,58.55
2022-10-11T06:31:17.926Z,58.62
2022-10-11T06:33:24.948Z,58.65
2022-10-11T06:35:31.390Z,58.71
2022-10-11T06:37:37.874Z,58.71
2022-10-11T06:39:44.615Z,58.77
2022-10-11T06:41:50.674Z,58.77
2022-10-11T06:43:57.448Z,58.90
2022-10-11T06:46:04.142Z,58.88
2022-10-11T06:48:10.885Z,59.02
2022-10-11T06:50:25.864Z,59.10
2022-10-11T06:52:41.597Z,59.18
2022-10-11T06:54:47.685Z,59.39
2022-10-11T06:56:54.322Z,59.48
2022-10-11T06:59:01.571Z,59.59
2022-10-11T07:01:14.303Z,59.64
2022-10-11T07:03:21.032Z,59.76
2022-10-11T07:05:27.531Z,59.85
2022-10-11T07:07:34.362Z,59.93
2022-10-11T07:09:40.730Z,60.02
2022-10-11T07:11:49.529Z,60.17
2022-10-11T07:14:02.488Z,60.28
2022-10-11T07:16:12.071Z,60.45
2022-10-11T07:18:18.353Z,60.61
2022-10-11T07:20:24.616Z,60.81
2022-10-11T07:22:31.195Z,60.84
2022-10-11T07:24:37.720Z,61.02
2022-10-11T07:26:44.484Z,61.23
2022-10-11T07:28:51.242Z,61.36
2022-10-11T07:30:58.352Z,61.54
2022-10-11T07:33:05.479Z,61.69
2022-10-11T07:35:11.828Z,61.84
2022-10-11T07:37:18.138Z,61.93
2022-10-11T07:39:24.643Z,61.98
2022-10-11T07:41:31.390Z,62.12
2022-10-11T07:43:38.272Z,62.05
2022-10-11T07:45:49.904Z,62.05
2022-10-11T07:47:58.985Z,62.03
2022-10-11T07:50:06.483Z,62.02
2022-10-11T07:52:12.817Z,62.12
2022-10-11T07:54:19.187Z,62.10
2022-10-11T07:56:28.100Z,61.90
2022-10-11T07:58:34.386Z,61.74
2022-10-11T08:00:43.738Z,61.42
2022-10-11T08:02:49.903Z,61.23
2022-10-11T08:04:56.464Z,61.07
2022-10-11T08:07:02.972Z,60.92
2022-10-11T08:09:09.781Z,60.88
2022-10-11T08:11:27.328Z,60.78
2022-10-11T08:13:34.115Z,60.85
2022-10-11T08:15:41.354Z,60.81
2022-10-11T08:17:48.386Z,60.75
2022-10-11T08:19:54.884Z,60.66
2022-10-11T08:22:01.339Z,60.61
2022-10-11T08:24:08.313Z,60.38
2022-10-11T08:26:15.257Z,60.23
2022-10-11T08:28:21.900Z,60.06
2022-10-11T08:30:28.561Z,59.93
2022-10-11T08:32:35.044Z,59.93
2022-10-11T08:34:41.736Z,59.84
2022-10-11T08:36:50.022Z,59.80
2022-10-11T08:38:56.596Z,59.71
2022-10-11T08:41:03.796Z,59.62
2022-10-11T08:43:23.987Z,59.54
2022-10-11T08:45:52.231Z,59.54
2022-10-11T08:48:14.610Z,59.25
2022-10-11T08:50:23.789Z,59.14
2022-10-11T08:52:43.066Z,58.85
2022-10-11T08:54:56.376Z,58.76
2022-10-11T08:57:05.384Z,58.50
2022-10-11T08:59:11.663Z,58.43
2022-10-11T09:01:27.345Z,58.31
2022-10-11T09:03:42.035Z,58.11
2022-10-11T09:06:09.580Z,58.09
2022-10-11T09:08:32.233Z,58.00
2022-10-11T09:10:57.484Z,57.86
2022-10-11T09:13:18.924Z,57.75
2022-10-11T09:15:49.898Z,57.65
2022-10-11T09:18:07.827Z,57.53
2022-10-11T09:20:46.411Z,57.59
2022-10-11T09:23:11.306Z,57.50
2022-10-11T09:25:34.244Z,57.40
2022-10-11T09:28:02.772Z,57.25
2022-10-11T09:30:18.962Z,57.19
2022-10-11T09:32:30.605Z,57.17
2022-10-11T09:34:39.127Z,57.20
2022-10-11T09:37:22.202Z,57.05
2022-10-11T09:39:32.636Z,57.14
2022-10-11T09:41:47.836Z,57.18
2022-10-11T09:43:54.821Z,57.15
2022-10-11T09:46:00.868Z,57.09
2022-10-11T09:48:08.813Z,57.08
2022-10-11T09:50:22.368Z,57.17
2022-10-11T09:52:28.589Z,57.15
2022-10-11T09:54:59.240Z,57.15
2022-10-11T09:57:08.505Z,57.34
2022-10-11T09:59:30.744Z,57.28
2022-10-11T10:01:37.935Z,57.50
2022-10-11T10:03:45.917Z,57.36
2022-10-11T10:06:08.198Z,57.41
2022-10-11T10:08:18.140Z,57.36
2022-10-11T10:10:30.353Z,57.29
2022-10-11T10:12:36.430Z,57.43
2022-10-11T10:14:43.033Z,57.54
2022-10-11T10:16:49.989Z,57.50
2022-10-11T10:18:56.090Z,57.48
2022-10-11T10:21:04.056Z,57.51
2022-10-11T10:23:25.346Z,57.44
2022-10-11T10:25:43.296Z,57.46
2022-10-11T10:28:05.039Z,57.55
2022-10-11T10:30:11.040Z,57.57
2022-10-11T10:32:28.577Z,57.50
2022-10-11T10:34:38.647Z,57.59
2022-10-11T10:36:53.058Z,57.69
2022-10-11T10:39:09.078Z,57.80
2022-10-11T10:41:18.067Z,57.81
2022-10-11T10:43:27.965Z,57.87
2022-10-11T10:45:54.494Z,57.90
2022-10-11T10:48:23.863Z,58.14
2022-10-11T10:50:33.394Z,58.25
2022-10-11T10:53:15.448Z,58.28
2022-10-11T10:55:33.343Z,58.41
2022-10-11T10:58:18.484Z,58.45
2022-10-11T11:00:26.396Z,58.38
2022-10-11T11:02:56.186Z,58.68
2022-10-11T11:05:12.309Z,58.63
2022-10-11T11:07:56.201Z,58.97
2022-10-11T11:10:44.200Z,58.81
2022-10-11T11:13:06.028Z,58.99
2022-10-11T11:15:40.006Z,59.27
2022-10-11T11:18:16.754Z,59.45
2022-10-11T11:20:49.717Z,59.43
2022-10-11T11:23:10.927Z,59.72
2022-10-11T11:25:28.339Z,59.75
2022-10-11T11:28:01.837Z,59.96
2022-10-11T11:30:21.833Z,59.95
2022-10-11T11:33:02.504Z,60.13
2022-10-11T11:35:29.040Z,60.37
2022-10-11T11:37:42.201Z,60.24
2022-10-11T11:39:53.580Z,60.63
2022-10-11T11:42:11.566Z,60.94
2022-10-11T11:44:56.254Z,61.11
2022-10-11T11:47:18.893Z,60.87
2022-10-11T11:49:40.686Z,60.77
2022-10-11T11:51:48.196Z,60.73
2022-10-11T11:54:13.988Z,60.63
2022-10-11T11:57:18.314Z,60.77
2022-10-11T11:59:48.849Z,60.55
2022-10-11T12:02:16.682Z,60.58
2022-10-11T12:04:32.070Z,60.71
2022-10-11T12:06:52.452Z,60.72
2022-10-11T12:09:23.430Z,60.68
2022-10-11T12:11:39.982Z,60.81
2022-10-11T12:13:55.397Z,60.69
2022-10-11T12:16:11.851Z,60.76
2022-10-11T12:18:18.968Z,60.78
2022-10-11T12:20:34.891Z,60.82
2022-10-11T12:22:53.676Z,61.10
2022-10-11T12:25:02.050Z,61.04
2022-10-11T12:27:45.149Z,60.93
2022-10-11T12:29:52.821Z,60.92
2022-10-11T12:32:02.546Z,61.00
2022-10-11T12:34:12.107Z,60.95
2022-10-11T12:36:36.630Z,61.13
2022-10-11T12:38:43.269Z,61.26
2022-10-11T12:40:53.272Z,61.36
2022-10-11T12:43:33.496Z,61.39
2022-10-11T12:45:39.962Z,61.48
2022-10-11T12:48:33.090Z,61.64
2022-10-11T12:50:41.802Z,61.73
2022-10-11T12:53:00.536Z,61.77
2022-10-11T12:55:31.447Z,61.70
2022-10-11T12:58:11.167Z,61.69
2022-10-11T13:00:30.431Z,61.76
2022-10-11T13:02:45.538Z,61.90
2022-10-11T13:04:52.153Z,62.03
2022-10-11T13:07:06.921Z,61.84
2022-10-11T13:09:13.554Z,62.13
2022-10-11T13:11:28.879Z,62.08
2022-10-11T13:14:12.112Z,62.29
2022-10-11T13:16:22.281Z,62.51
2022-10-11T13:18:28.998Z,62.51
2022-10-11T13:20:38.945Z,62.59
2022-10-11T13:22:51.281Z,62.71
2022-10-11T13:24:59.053Z,62.62
2022-10-11T13:27:07.433Z,62.78
2022-10-11T13:29:20.985Z,62.93
2022-10-11T13:31:27.529Z,63.15
2022-10-11T13:33:46.738Z,63.12
2022-10-11T13:35:53.828Z,63.38
2022-10-11T13:38:00.714Z,63.48
2022-10-11T13:40:07.860Z,63.56
2022-10-11T13:42:17.075Z,63.64
2022-10-11T13:44:23.872Z,63.69
2022-10-11T13:46:32.903Z,63.70
2022-10-11T13:48:42.698Z,63.84
2022-10-11T13:51:13.906Z,63.79
2022-10-11T13:53:20.131Z,64.01
2022-10-11T13:55:27.990Z,63.94
2022-10-11T13:57:40.052Z,64.11
2022-10-11T13:59:46.736Z,64.23
2022-10-11T14:02:00.437Z,64.20
2022-10-11T14:04:18.505Z,64.18
2022-10-11T14:06:25.657Z,64.28
2022-10-11T14:08:44.309Z,64.22
2022-10-11T14:10:56.421Z,64.22
2022-10-11T14:13:08.601Z,64.27
2022-10-11T14:15:32.083Z,64.38
2022-10-11T14:17:44.402Z,64.35
2022-10-11T14:20:11.508Z,64.54
2022-10-11T14:22:19.743Z,64.44
2022-10-11T14:24:26.121Z,64.57
2022-10-11T14:26:40.852Z,64.46
2022-10-11T14:28:49.411Z,64.47
2022-10-11T14:30:56.030Z,64.50
2022-10-11T14:33:05.117Z,64.49
2022-10-11T14:35:25.789Z,64.48
2022-10-11T14:37:32.457Z,64.43
2022-10-11T14:39:38.948Z,64.36
2022-10-11T14:41:46.647Z,64.31
2022-10-11T14:43:54.523Z,64.60
2022-10-11T14:46:01.192Z,64.40
2022-10-11T14:48:08.137Z,64.35
2022-10-11T14:50:57.316Z,64.46
2022-10-11T14:53:04.170Z,64.41
2022-10-11T14:55:10.984Z,64.48
2022-10-11T14:57:17.541Z,64.48
2022-10-11T14:59:27.117Z,64.39
2022-10-11T15:01:33.342Z,64.49
2022-10-11T15:03:39.944Z,64.40
2022-10-11T15:05:46.539Z,64.87
2022-10-11T15:07:53.204Z,65.06
2022-10-11T15:09:59.817Z,64.77
2022-10-11T15:12:06.581Z,65.04
2022-10-11T15:14:13.191Z,64.69
2022-10-11T15:16:21.524Z,64.53
2022-10-11T15:18:27.889Z,64.16
2022-10-11T15:20:40.589Z,63.81
2022-10-11T15:22:46.821Z,63.10
2022-10-11T15:24:52.932Z,62.54
2022-10-11T15:26:59.105Z,62.00
2022-10-11T15:29:05.818Z,61.44
2022-10-11T15:31:13.237Z,60.91
2022-10-11T15:33:19.627Z,60.41
2022-10-11T15:35:27.870Z,59.76
2022-10-11T15:37:37.325Z,59.19
2022-10-11T15:39:44.120Z,58.54
2022-10-11T15:41:50.633Z,57.96
2022-10-11T15:43:57.353Z,57.24
2022-10-11T15:46:04.505Z,56.86
2022-10-11T15:48:17.878Z,56.71
2022-10-11T15:50:38.460Z,56.33
2022-10-11T15:52:46.668Z,55.99
2022-10-11T15:54:52.938Z,55.45
2022-10-11T15:56:59.845Z,55.30
2022-10-11T15:59:06.627Z,54.96
2022-10-11T16:01:18.657Z,54.41
2022-10-11T16:03:28.806Z,53.93
2022-10-11T16:05:35.642Z,53.48
2022-10-11T16:07:42.027Z,53.24
2022-10-11T16:09:48.428Z,52.99
2022-10-11T16:11:54.780Z,52.40
2022-10-11T16:14:01.269Z,52.66
2022-10-11T16:16:10.098Z,52.46
2022-10-11T16:18:18.574Z,51.96
2022-10-11T16:20:26.807Z,51.95
2022-10-11T16:22:33.268Z,51.61
2022-10-11T16:24:40.071Z,50.61
2022-10-11T16:26:46.557Z,50.88
2022-10-11T16:28:52.905Z,50.92
2022-10-11T16:30:59.406Z,50.76
2022-10-11T16:33:05.838Z,50.13
2022-10-11T16:35:14.348Z,50.85
2022-10-11T16:37:20.899Z,50.75
2022-10-11T16:39:27.574Z,50.37
2022-10-11T16:41:33.553Z,50.24
2022-10-11T16:43:40.346Z,50.08
2022-10-11T16:45:46.515Z,49.83
2022-10-11T16:47:52.553Z,49.70
2022-10-11T16:50:00.317Z,49.72
2022-10-11T16:52:07.688Z,49.40
2022-10-11T16:54:19.314Z,48.94
2022-10-11T16:56:27.150Z,48.36
2022-10-11T16:58:34.943Z,47.69
2022-10-11T17:00:44.360Z,48.00
2022-10-11T17:02:50.775Z,47.69
2022-10-11T17:04:57.221Z,47.51
2022-10-11T17:07:03.486Z,47.00
2022-10-11T17:09:09.774Z,46.55
2022-10-11T17:11:18.574Z,46.37
2022-10-11T17:13:24.921Z,46.00
2022-10-11T17:15:32.306Z,44.80
2022-10-11T17:17:38.463Z,44.43
2022-10-11T17:19:45.695Z,44.42
2022-10-11T17:21:52.286Z,44.20
2022-10-11T17:23:58.959Z,44.20
2022-10-11T17:26:11.239Z,43.66
2022-10-11T17:28:18.460Z,43.15
2022-10-11T17:30:26.057Z,42.93
2022-10-11T17:32:32.396Z,42.76
2022-10-11T17:34:38.798Z,42.47
2022-10-11T17:36:45.614Z,42.29
2022-10-11T17:38:53.617Z,41.73
2022-10-11T17:41:04.839Z,41.81
2022-10-11T17:43:11.912Z,41.55
2022-10-11T17:45:19.871Z,41.07
2022-10-11T17:47:26.241Z,40.50
2022-10-11T17:49:32.499Z,40.73
2022-10-11T17:51:40.341Z,40.95
2022-10-11T17:53:49.181Z,40.73
2022-10-11T17:55:55.438Z,40.64
2022-10-11T17:58:01.571Z,40.21
2022-10-11T18:00:09.236Z,39.96
2022-10-11T18:02:16.641Z,39.53
2022-10-11T18:04:27.750Z,39.72
2022-10-11T18:06:40.121Z,39.68
2022-10-11T18:08:46.768Z,39.90
2022-10-11T18:10:52.842Z,39.58
2022-10-11T18:13:00.230Z,39.41
2022-10-11T18:15:10.187Z,38.99
2022-10-11T18:17:16.420Z,38.95
2022-10-11T18:19:22.580Z,38.80
2022-10-11T18:21:34.213Z,38.67
2022-10-11T18:23:41.099Z,38.55
2022-10-11T18:25:51.460Z,38.34
2022-10-11T18:27:57.593Z,38.29
2022-10-11T18:30:03.597Z,38.43
2022-10-11T18:32:10.547Z,38.34
2022-10-11T18:34:17.287Z,37.80
2022-10-11T18:36:27.153Z,37.51
2022-10-11T18:38:35.013Z,37.42
2022-10-11T18:40:46.850Z,37.08
2022-10-11T18:42:53.458Z,37.29
2022-10-11T18:45:00.018Z,37.00
2022-10-11T18:47:06.586Z,36.91
2022-10-11T18:49:13.623Z,37.02
2022-10-11T18:51:23.446Z,36.74
2022-10-11T18:53:29.879Z,36.75
2022-10-11T18:55:36.468Z,37.01
2022-10-11T18:57:43.458Z,36.63
2022-10-11T18:59:50.184Z,36.23
2022-10-11T19:01:56.295Z,35.96
2022-10-11T19:04:04.909Z,36.50
2022-10-11T19:06:19.890Z,36.37
2022-10-11T19:08:25.948Z,36.14
2022-10-11T19:10:32.046Z,35.84
2022-10-11T19:12:38.120Z,35.41
2022-10-11T19:14:44.369Z,34.96
2022-10-11T19:16:52.569Z,34.92
2022-10-11T19:18:59.581Z,35.48
2022-10-11T19:21:12.187Z,36.03
2022-10-11T19:23:18.155Z,36.11
2022-10-11T19:25:25.498Z,36.02
2022-10-11T19:27:31.714Z,35.65
2022-10-11T19:29:39.003Z,35.49
2022-10-11T19:31:48.256Z,35.27
2022-10-11T19:33:55.429Z,34.85
2022-10-11T19:36:04.840Z,34.34
2022-10-11T19:38:11.415Z,34.00
2022-10-11T19:40:18.015Z,34.09
2022-10-11T19:42:24.489Z,34.10
2022-10-11T19:44:33.410Z,33.97
2022-10-11T19:46:51.662Z,33.95
2022-10-11T19:48:58.545Z,33.60
2022-10-11T19:51:10.467Z,33.74
2022-10-11T19:53:17.191Z,33.69
2022-10-11T19:55:23.342Z,33.67
2022-10-11T19:57:30.727Z,33.49
2022-10-11T19:59:37.272Z,33.41
2022-10-11T20:01:49.358Z,33.25
2022-10-11T20:04:06.218Z,33.09
2022-10-11T20:06:13.535Z,33.25
2022-10-11T20:08:20.234Z,33.02
2022-10-11T20:10:27.069Z,32.94
2022-10-11T20:12:34.788Z,33.16
2022-10-11T20:14:41.983Z,33.21
2022-10-11T20:16:50.549Z,33.38
2022-10-11T20:19:02.136Z,33.42
2022-10-11T20:21:09.624Z,33.58
2022-10-11T20:23:18.150Z,33.40
2022-10-11T20:25:24.674Z,33.52
2022-10-11T20:27:33.383Z,33.34
2022-10-11T20:29:40.199Z,33.08
2022-10-11T20:31:46.396Z,33.15
2022-10-11T20:33:53.276Z,32.80
2022-10-11T20:36:02.831Z,32.93
2022-10-11T20:38:09.938Z,33.19
2022-10-11T20:40:16.407Z,32.92
2022-10-11T20:42:25.284Z,33.09
2022-10-11T20:44:34.286Z,33.25
2022-10-11T20:46:41.010Z,33.12
2022-10-11T20:49:01.183Z,33.23
2022-10-11T20:51:12.532Z,33.10
2022-10-11T20:53:18.717Z,32.71
2022-10-11T20:55:25.429Z,32.79
2022-10-11T20:57:32.530Z,32.86
2022-10-11T20:59:39.111Z,32.93
2022-10-11T21:01:45.950Z,33.03
2022-10-11T21:03:52.537Z,33.01
2022-10-11T21:06:01.981Z,33.10
2022-10-11T21:08:08.411Z,32.99
2022-10-11T21:10:15.345Z,32.95
2022-10-11T21:12:22.000Z,32.75
2022-10-11T21:14:28.519Z,32.91
2022-10-11T21:16:35.675Z,33.12
2022-10-11T21:18:42.052Z,33.30
2022-10-11T21:20:48.613Z,33.11
2022-10-11T21:22:55.458Z,33.18
2022-10-11T21:25:02.421Z,32.97
2022-10-11T21:27:08.717Z,32.67
2022-10-11T21:29:15.341Z,32.56
2022-10-11T21:31:23.438Z,32.56
2022-10-11T21:33:31.241Z,32.67
2022-10-11T21:35:41.288Z,33.11
2022-10-11T21:37:48.078Z,33.11
2022-10-11T21:39:54.249Z,33.33
2022-10-11T21:42:01.361Z,33.25
2022-10-11T21:44:07.934Z,33.30
2022-10-11T21:46:20.223Z,33.28
2022-10-11T21:48:27.020Z,32.79
2022-10-11T21:50:33.625Z,33.01
2022-10-11T21:52:40.032Z,33.12
2022-10-11T21:54:46.500Z,33.11
2022-10-11T21:56:53.109Z,33.07
2022-10-11T21:58:59.730Z,32.99
2022-10-11T22:01:06.563Z,33.10
2022-10-11T22:03:13.293Z,33.18
2022-10-11T22:05:19.996Z,32.98
2022-10-11T22:07:26.660Z,32.84
2022-10-11T22:09:36.377Z,33.24
2022-10-11T22:11:42.936Z,32.90
2022-10-11T22:13:50.542Z,32.93
2022-10-11T22:16:00.496Z,33.21
2022-10-11T22:18:06.845Z,33.36
2022-10-11T22:20:13.225Z,33.42
2022-10-11T22:22:19.518Z,33.58
2022-10-11T22:24:26.801Z,33.36
2022-10-11T22:26:36.282Z,33.64
2022-10-11T22:28:43.298Z,33.02
2022-10-11T22:30:49.452Z,33.17
2022-10-11T22:32:55.939Z,33.20
2022-10-11T22:35:02.237Z,33.09
2022-10-11T22:37:08.455Z,33.41
2022-10-11T22:39:14.888Z,33.39
2022-10-11T22:41:21.282Z,33.54
2022-10-11T22:43:27.811Z,33.59
2022-10-11T22:45:34.808Z,33.62
2022-10-11T22:47:41.475Z,33.53
2022-10-11T22:49:47.958Z,33.90
2022-10-11T22:51:54.411Z,33.73
2022-10-11T22:54:00.668Z,33.74
2022-10-11T22:56:07.605Z,33.83
2022-10-11T22:58:13.885Z,33.84
2022-10-11T23:00:20.377Z,34.02
2022-10-11T23:02:27.527Z,34.01
2022-10-11T23:04:33.976Z,34.17
2022-10-11T23:06:40.470Z,33.86
2022-10-11T23:08:46.850Z,33.67
2022-10-11T23:10:53.640Z,33.79
2022-10-11T23:12:59.930Z,33.75
2022-10-11T23:15:07.794Z,33.70
2022-10-11T23:17:14.283Z,33.46
2022-10-11T23:19:20.662Z,33.33
2022-10-11T23:21:28.122Z,33.57
2022-10-11T23:23:34.563Z,33.54
2022-10-11T23:25:40.796Z,33.66
2022-10-11T23:27:46.855Z,33.50
2022-10-11T23:29:52.979Z,33.39
2022-10-11T23:31:59.878Z,33.42
2022-10-11T23:34:06.027Z,33.36
2022-10-11T23:36:21.004Z,33.42
2022-10-11T23:38:27.262Z,33.52
2022-10-11T23:40:33.728Z,33.52
2022-10-11T23:42:39.785Z,33.62
2022-10-11T23:44:45.790Z,33.59
2022-10-11T23:46:51.693Z,33.60
2022-10-11T23:48:58.556Z,33.62
2022-10-11T23:51:04.593Z,33.47
2022-10-11T23:53:14.314Z,33.74
2022-10-11T23:55:20.740Z,33.76
2022-10-11T23:57:27.166Z,33.87
2022-10-11T23:59:33.265Z,33.86
